Time;durP1;ratioP1;P1;durP2;ratioP2;P2;SDS_P1;SDS_P2;PMS_P1;PMS_P2;Temp;Humidity;BMP_temperature;BMP_pressure;BME280_temperature;BME280_humidity;BME280_pressure;Samples;Min_cycle;Max_cycle;Signal;HPM_P1;HPM_P2
2023/06/29 00:01:05;;;;;;;14.05;4.35;;;22.40;63.80;;;;;;5055427;28;20366;-66
2023/06/29 00:03:32;;;;;;;12.48;4.38;;;22.30;64.30;;;;;;5054866;28;20032;-66
2023/06/29 00:05:59;;;;;;;8.88;4.00;;;22.30;64.20;;;;;;5054872;28;20417;-66
2023/06/29 00:08:27;;;;;;;5.72;3.63;;;22.20;65.10;;;;;;5037607;28;20033;-66
2023/06/29 00:10:54;;;;;;;7.07;3.92;;;22.20;65.30;;;;;;5037519;28;20366;-66
2023/06/29 00:13:21;;;;;;;7.78;3.72;;;22.10;64.80;;;;;;5054756;28;20036;-68
2023/06/29 00:15:48;;;;;;;6.75;3.58;;;22.10;64.70;;;;;;5054780;28;20143;-66
2023/06/29 00:18:14;;;;;;;7.80;3.50;;;22.10;64.60;;;;;;5054971;28;20039;-65
2023/06/29 00:20:42;;;;;;;7.93;3.92;;;22.10;64.80;;;;;;5056289;28;20029;-66
2023/06/29 00:23:08;;;;;;;8.10;3.78;;;22.00;64.80;;;;;;5058104;28;20017;-66
2023/06/29 00:25:34;;;;;;;6.95;4.15;;;22.00;64.80;;;;;;5039770;28;20355;-66
2023/06/29 00:28:01;;;;;;;7.65;3.70;;;22.00;64.70;;;;;;5057365;28;20021;-66
2023/06/29 00:30:27;;;;;;;7.65;4.28;;;22.00;64.50;;;;;;5056204;28;20057;-66
2023/06/29 00:32:53;;;;;;;8.02;3.80;;;21.90;64.60;;;;;;5054569;28;20075;-66
2023/06/29 00:35:19;;;;;;;9.20;4.50;;;22.00;64.50;;;;;;5054963;28;20029;-66
2023/06/29 00:37:46;;;;;;;10.02;3.88;;;21.90;64.60;;;;;;5054944;28;20028;-68
2023/06/29 00:40:12;;;;;;;8.45;4.38;;;21.90;64.60;;;;;;5054759;28;20096;-67
2023/06/29 00:42:38;;;;;;;4.95;3.63;;;21.90;64.80;;;;;;5056118;28;20100;-67
2023/06/29 00:45:05;;;;;;;9.18;4.47;;;21.90;64.80;;;;;;5058794;28;20044;-68
2023/06/29 00:47:33;;;;;;;9.23;4.10;;;21.90;64.40;;;;;;5058163;28;20040;-67
2023/06/29 00:50:00;;;;;;;5.32;3.88;;;21.90;64.20;;;;;;5058157;28;20056;-67
2023/06/29 00:52:27;;;;;;;7.20;4.03;;;21.90;64.40;;;;;;5058160;28;20044;-68
2023/06/29 00:54:56;;;;;;;5.72;3.65;;;21.90;65.00;;;;;;5057999;28;20024;-67
2023/06/29 00:57:24;;;;;;;7.75;3.92;;;21.90;64.90;;;;;;5058248;28;20068;-67
2023/06/29 00:59:50;;;;;;;5.55;3.95;;;21.80;65.00;;;;;;5058025;28;20071;-67
2023/06/29 01:02:17;;;;;;;5.13;3.67;;;21.90;64.80;;;;;;5057964;28;20407;-67
2023/06/29 01:04:45;;;;;;;6.90;3.50;;;21.90;64.80;;;;;;5058194;28;20024;-67
2023/06/29 01:07:17;;;;;;;4.97;3.67;;;21.90;64.70;;;;;;5040212;28;20029;-67
2023/06/29 01:09:46;;;;;;;5.55;3.47;;;21.90;64.60;;;;;;5057734;28;20033;-67
2023/06/29 01:12:13;;;;;;;4.25;3.28;;;21.90;64.70;;;;;;5040333;28;20075;-67
2023/06/29 01:14:41;;;;;;;3.65;3.10;;;21.90;64.70;;;;;;5057635;28;20053;-67
2023/06/29 01:17:11;;;;;;;4.22;3.20;;;21.90;64.60;;;;;;5058011;28;20025;-67
2023/06/29 01:19:42;;;;;;;6.03;3.35;;;21.90;64.60;;;;;;5058259;28;20383;-68
2023/06/29 01:22:17;;;;;;;4.15;3.33;;;21.90;64.50;;;;;;5057909;28;20025;-67
2023/06/29 01:24:43;;;;;;;4.35;3.28;;;21.90;64.40;;;;;;5057895;28;20429;-67
2023/06/29 01:27:13;;;;;;;4.97;3.45;;;21.90;64.50;;;;;;5057491;28;20464;-67
2023/06/29 01:29:40;;;;;;;4.18;3.05;;;21.90;64.50;;;;;;5057478;28;20091;-67
2023/06/29 01:32:07;;;;;;;4.85;3.25;;;21.90;64.70;;;;;;5057999;28;20032;-67
2023/06/29 01:34:35;;;;;;;5.35;3.63;;;21.80;64.80;;;;;;5057490;28;20379;-67
2023/06/29 01:37:18;;;;;;;5.82;3.47;;;21.80;64.80;;;;;;5057274;28;20017;-68
2023/06/29 01:39:58;;;;;;;5.13;3.20;;;21.80;65.00;;;;;;5057602;28;20021;-67
2023/06/29 01:42:25;;;;;;;5.30;4.18;;;21.70;65.20;;;;;;5057752;28;20021;-67
2023/06/29 01:44:54;;;;;;;5.15;4.05;;;21.80;65.00;;;;;;5039881;28;20327;-67
2023/06/29 01:47:21;;;;;;;9.02;4.82;;;21.60;65.00;;;;;;5040122;28;20032;-67
2023/06/29 01:49:48;;;;;;;8.32;4.40;;;21.60;65.10;;;;;;5057025;28;20029;-68
2023/06/29 01:52:15;;;;;;;7.97;4.72;;;21.50;65.40;;;;;;5057302;28;20497;-68
2023/06/29 01:54:41;;;;;;;7.60;4.70;;;21.40;65.90;;;;;;5056648;28;20032;-67
2023/06/29 01:57:08;;;;;;;6.95;4.20;;;21.40;66.00;;;;;;5056945;28;20021;-67
2023/06/29 01:59:34;;;;;;;8.60;4.80;;;21.40;65.80;;;;;;5056843;28;20405;-67
2023/06/29 02:02:01;;;;;;;7.85;4.57;;;21.30;66.40;;;;;;5039272;28;20110;-67
2023/06/29 02:04:27;;;;;;;6.40;4.40;;;21.20;66.50;;;;;;5057327;28;20040;-67
2023/06/29 02:06:52;;;;;;;8.23;4.60;;;21.20;66.20;;;;;;5056781;28;20021;-67
2023/06/29 02:09:18;;;;;;;6.30;4.35;;;21.10;66.00;;;;;;5056884;28;20025;-67
2023/06/29 02:11:44;;;;;;;8.55;4.75;;;21.10;66.00;;;;;;5056952;28;20025;-67
2023/06/29 02:14:10;;;;;;;9.43;5.03;;;21.00;66.20;;;;;;5057055;28;20117;-67
2023/06/29 02:16:36;;;;;;;9.10;4.63;;;21.00;66.50;;;;;;5056612;28;20095;-67
2023/06/29 02:19:02;;;;;;;6.57;4.35;;;20.90;66.50;;;;;;5056455;28;20017;-67
2023/06/29 02:21:28;;;;;;;7.72;4.43;;;20.80;65.50;;;;;;5056749;28;20044;-67
2023/06/29 02:23:55;;;;;;;10.93;4.78;;;20.80;65.50;;;;;;5056693;28;20387;-67
2023/06/29 02:26:20;;;;;;;6.55;4.13;;;20.80;65.40;;;;;;5056883;28;20029;-67
2023/06/29 02:28:47;;;;;;;9.40;4.18;;;20.80;65.40;;;;;;5056286;28;20032;-67
2023/06/29 02:31:13;;;;;;;5.93;3.58;;;20.70;65.20;;;;;;5056037;28;20080;-68
2023/06/29 02:33:40;;;;;;;7.85;3.85;;;20.70;65.00;;;;;;5056190;28;20068;-67
2023/06/29 02:36:06;;;;;;;5.85;3.47;;;20.60;64.80;;;;;;5056712;28;20021;-67
2023/06/29 02:38:32;;;;;;;5.35;3.63;;;20.50;64.60;;;;;;5056061;28;20017;-68
2023/06/29 02:40:58;;;;;;;5.85;3.75;;;20.50;64.70;;;;;;5056362;28;20108;-67
2023/06/29 02:43:24;;;;;;;6.60;4.10;;;20.40;64.70;;;;;;5055979;28;20369;-67
2023/06/29 02:45:50;;;;;;;7.43;4.10;;;20.40;64.90;;;;;;5056038;28;20060;-67
2023/06/29 02:48:16;;;;;;;8.15;4.47;;;20.40;64.80;;;;;;5055921;28;20442;-67
2023/06/29 02:50:42;;;;;;;9.15;4.25;;;20.30;65.10;;;;;;5056159;28;20016;-67
2023/06/29 02:53:11;;;;;;;9.68;4.47;;;20.30;65.20;;;;;;5056344;28;20107;-67
2023/06/29 02:55:37;;;;;;;9.07;4.78;;;20.20;65.50;;;;;;5055830;28;20071;-67
2023/06/29 02:58:02;;;;;;;7.47;4.57;;;20.20;65.70;;;;;;5055956;28;20021;-67
2023/06/29 03:00:28;;;;;;;7.97;4.30;;;20.20;65.90;;;;;;5055703;28;20434;-67
2023/06/29 03:02:54;;;;;;;8.02;4.43;;;20.10;65.80;;;;;;5055704;28;20021;-67
2023/06/29 03:05:20;;;;;;;7.30;4.32;;;20.10;65.80;;;;;;5057318;28;20040;-67
2023/06/29 03:07:46;;;;;;;9.32;4.20;;;20.10;66.00;;;;;;5059097;28;20400;-67
2023/06/29 03:10:12;;;;;;;8.45;4.20;;;20.10;66.00;;;;;;5059480;28;20067;-67
2023/06/29 03:12:38;;;;;;;6.18;4.25;;;20.10;66.10;;;;;;5059205;28;20021;-67
2023/06/29 03:15:04;;;;;;;5.40;3.60;;;20.00;66.10;;;;;;5058622;28;20057;-67
2023/06/29 03:17:31;;;;;;;5.82;4.10;;;20.00;66.00;;;;;;5038191;28;20354;-66
2023/06/29 03:19:57;;;;;;;7.20;4.47;;;20.00;66.20;;;;;;5055363;28;20029;-67
2023/06/29 03:22:25;;;;;;;7.78;4.43;;;20.00;66.30;;;;;;5055347;28;20024;-67
2023/06/29 03:24:51;;;;;;;6.40;3.90;;;20.00;66.60;;;;;;5055293;28;20033;-67
2023/06/29 03:27:16;;;;;;;5.80;4.32;;;20.00;66.70;;;;;;5055458;28;20017;-67
2023/06/29 03:29:42;;;;;;;10.95;4.88;;;19.90;67.20;;;;;;5055168;28;20131;-67
2023/06/29 03:32:08;;;;;;;6.90;4.10;;;19.90;67.10;;;;;;5055785;28;20067;-67
2023/06/29 03:34:34;;;;;;;8.25;4.47;;;19.90;67.10;;;;;;5055096;28;20032;-67
2023/06/29 03:37:00;;;;;;;6.70;4.13;;;19.70;67.20;;;;;;5055158;28;20025;-67
2023/06/29 03:39:26;;;;;;;7.65;4.38;;;19.70;67.20;;;;;;5055067;28;20025;-67
2023/06/29 03:41:53;;;;;;;5.85;4.20;;;19.70;67.30;;;;;;5055363;28;20017;-67
2023/06/29 03:44:19;;;;;;;7.07;4.25;;;19.70;67.50;;;;;;5055282;28;20075;-67
2023/06/29 03:46:45;;;;;;;4.32;3.42;;;19.60;67.60;;;;;;5055511;28;20020;-67
2023/06/29 03:49:10;;;;;;;5.55;2.97;;;19.60;67.40;;;;;;5054880;28;20033;-67
2023/06/29 03:51:36;;;;;;;6.85;3.80;;;19.70;66.90;;;;;;5054995;28;20021;-67
2023/06/29 03:54:02;;;;;;;6.63;3.92;;;19.60;67.20;;;;;;5054813;28;20057;-67
2023/06/29 03:56:31;;;;;;;4.32;3.42;;;19.60;67.30;;;;;;5055156;28;20427;-67
2023/06/29 03:58:57;;;;;;;5.40;3.70;;;19.60;67.40;;;;;;5054760;28;20036;-67
2023/06/29 04:01:23;;;;;;;4.70;3.50;;;19.70;67.30;;;;;;5037384;28;20013;-67
2023/06/29 04:03:50;;;;;;;6.07;3.50;;;19.70;66.90;;;;;;5054867;28;20143;-67
2023/06/29 04:06:16;;;;;;;4.57;3.40;;;19.70;66.70;;;;;;5055360;28;20144;-67
2023/06/29 04:08:42;;;;;;;6.43;3.40;;;19.80;66.70;;;;;;5054844;28;20025;-67
2023/06/29 04:11:09;;;;;;;5.00;3.05;;;19.80;66.50;;;;;;5054756;28;20027;-67
2023/06/29 04:13:35;;;;;;;4.10;2.42;;;19.90;66.40;;;;;;5054937;28;20120;-68
2023/06/29 04:16:01;;;;;;;3.00;2.55;;;20.00;66.10;;;;;;5054941;28;20057;-68
2023/06/29 04:18:28;;;;;;;3.95;2.92;;;20.00;65.90;;;;;;5058662;28;20055;-67
2023/06/29 04:20:54;;;;;;;3.88;2.50;;;20.20;65.70;;;;;;5058786;28;20024;-67
2023/06/29 04:23:20;;;;;;;3.75;3.15;;;20.30;65.50;;;;;;5058958;28;20121;-68
2023/06/29 04:25:46;;;;;;;7.07;3.17;;;20.40;65.40;;;;;;5059369;28;20028;-67
2023/06/29 04:28:12;;;;;;;6.88;3.45;;;20.60;65.00;;;;;;5058571;28;20029;-67
2023/06/29 04:30:44;;;;;;;6.07;3.58;;;20.80;64.30;;;;;;5058940;28;20051;-68
2023/06/29 04:33:10;;;;;;;5.53;3.47;;;20.90;63.80;;;;;;5058770;28;20025;-67
2023/06/29 04:35:40;;;;;;;4.28;3.08;;;21.10;63.20;;;;;;5058975;28;20362;-67
2023/06/29 04:38:09;;;;;;;3.70;3.13;;;21.40;62.80;;;;;;5058660;28;20359;-67
2023/06/29 04:40:35;;;;;;;5.20;3.20;;;21.50;62.30;;;;;;5058299;28;20017;-68
2023/06/29 04:43:02;;;;;;;5.40;3.30;;;21.80;61.60;;;;;;5058277;28;20037;-68
2023/06/29 04:45:28;;;;;;;5.22;2.95;;;22.00;61.20;;;;;;5058248;28;20025;-68
2023/06/29 04:48:01;;;;;;;4.93;3.25;;;22.20;60.60;;;;;;5058116;28;20466;-67
2023/06/29 04:50:35;;;;;;;5.63;3.63;;;22.50;60.30;;;;;;5058183;28;20052;-68
2023/06/29 04:53:12;;;;;;;5.85;3.05;;;22.80;59.80;;;;;;5058147;28;20036;-68
2023/06/29 04:55:38;;;;;;;3.92;2.78;;;23.30;59.30;;;;;;5058053;28;20040;-68
2023/06/29 04:58:04;;;;;;;6.38;3.20;;;24.20;58.20;;;;;;5058379;28;20021;-68
2023/06/29 05:00:32;;;;;;;4.28;2.65;;;25.30;56.30;;;;;;5040660;28;20028;-68
2023/06/29 05:03:00;;;;;;;4.70;2.78;;;26.30;54.30;;;;;;5057899;28;20039;-68
2023/06/29 05:05:25;;;;;;;7.07;2.95;;;27.30;52.10;;;;;;5058197;28;20114;-68
2023/06/29 05:07:51;;;;;;;4.85;2.55;;;28.10;50.40;;;;;;5058185;28;20063;-68
2023/06/29 05:10:17;;;;;;;4.40;2.78;;;28.40;48.90;;;;;;5040222;28;20037;-68
2023/06/29 05:12:43;;;;;;;4.15;2.70;;;28.30;48.00;;;;;;5057716;28;20075;-69
2023/06/29 05:15:09;;;;;;;2.63;2.42;;;28.10;48.30;;;;;;5057975;28;20116;-68
2023/06/29 05:17:35;;;;;;;3.72;2.90;;;27.90;48.40;;;;;;5057679;28;20024;-68
2023/06/29 05:20:03;;;;;;;4.57;2.60;;;27.40;48.70;;;;;;5058183;28;20029;-68
2023/06/29 05:22:29;;;;;;;4.38;2.90;;;27.00;49.10;;;;;;5057535;28;20450;-68
2023/06/29 05:24:55;;;;;;;6.28;3.10;;;26.50;49.30;;;;;;5057784;28;20035;-68
2023/06/29 05:27:21;;;;;;;3.15;2.70;;;26.00;50.00;;;;;;5057921;28;20083;-68
2023/06/29 05:29:47;;;;;;;3.67;3.22;;;25.50;50.80;;;;;;5056679;28;20056;-68
2023/06/29 05:32:13;;;;;;;6.40;3.08;;;25.00;51.30;;;;;;5057705;28;20108;-67
2023/06/29 05:34:39;;;;;;;5.40;3.17;;;24.60;52.40;;;;;;5057826;28;20032;-67
2023/06/29 05:37:05;;;;;;;4.15;2.60;;;24.30;53.10;;;;;;5057324;28;20036;-68
2023/06/29 05:39:31;;;;;;;3.80;2.60;;;24.20;53.80;;;;;;5057241;28;20021;-67
2023/06/29 05:41:57;;;;;;;3.55;2.75;;;24.00;54.30;;;;;;5057243;28;20366;-68
2023/06/29 05:44:23;;;;;;;3.10;2.80;;;23.90;54.50;;;;;;5057180;28;20025;-67
2023/06/29 05:46:49;;;;;;;4.35;2.90;;;23.70;54.70;;;;;;5057387;28;20029;-67
2023/06/29 05:49:15;;;;;;;5.28;3.00;;;23.60;55.20;;;;;;5057292;28;20029;-67
2023/06/29 05:51:42;;;;;;;3.08;2.60;;;23.50;55.10;;;;;;5057337;28;20465;-67
2023/06/29 05:54:08;;;;;;;5.68;2.72;;;23.40;55.70;;;;;;5056908;28;20119;-67
2023/06/29 05:56:34;;;;;;;5.25;3.00;;;23.40;55.80;;;;;;5039365;28;20087;-67
2023/06/29 05:59:00;;;;;;;4.28;2.65;;;23.30;55.20;;;;;;5056861;28;20431;-68
2023/06/29 06:01:26;;;;;;;6.40;2.75;;;23.20;55.70;;;;;;5057144;28;20025;-67
2023/06/29 06:03:52;;;;;;;5.45;3.30;;;23.10;55.60;;;;;;5039707;28;20104;-67
2023/06/29 06:06:18;;;;;;;4.72;2.63;;;23.10;55.70;;;;;;5056767;28;20400;-67
2023/06/29 06:08:44;;;;;;;5.32;2.85;;;23.00;55.70;;;;;;5056924;28;20024;-67
2023/06/29 06:11:10;;;;;;;6.57;2.90;;;23.10;55.90;;;;;;5056967;28;20036;-67
2023/06/29 06:13:36;;;;;;;12.30;3.35;;;23.20;56.10;;;;;;5057042;28;20025;-68
2023/06/29 06:16:04;;;;;;;4.20;2.70;;;23.40;55.40;;;;;;5056576;28;20021;-68
2023/06/29 06:18:30;;;;;;;3.30;2.88;;;23.70;54.70;;;;;;5056449;28;20028;-68
2023/06/29 06:20:56;;;;;;;7.38;3.05;;;24.20;53.70;;;;;;5057064;28;20422;-67
2023/06/29 06:23:22;;;;;;;5.38;2.60;;;24.80;51.60;;;;;;5039252;28;20458;-68
2023/06/29 06:25:48;;;;;;;5.18;2.80;;;25.90;49.90;;;;;;5038745;28;20028;-67
2023/06/29 06:28:14;;;;;;;5.97;2.40;;;27.40;45.80;;;;;;5056287;28;20103;-68
2023/06/29 06:30:40;;;;;;;4.63;2.50;;;29.30;44.60;;;;;;5021844;28;20054;-68
2023/06/29 06:33:06;;;;;;;4.80;2.45;;;30.90;38.90;;;;;;5017077;28;20129;-68
2023/06/29 06:35:32;;;;;;;3.70;2.50;;;32.20;37.90;;;;;;5016725;28;20436;-67
2023/06/29 06:37:58;;;;;;;3.95;2.30;;;32.30;36.70;;;;;;5016624;28;20477;-68
2023/06/29 06:40:24;;;;;;;4.10;2.60;;;31.60;37.70;;;;;;5015982;28;20022;-68
2023/06/29 06:42:50;;;;;;;3.90;2.20;;;30.40;38.60;;;;;;5016928;28;20036;-66
2023/06/29 06:45:16;;;;;;;4.28;2.35;;;29.60;40.30;;;;;;5016338;28;20038;-66
2023/06/29 06:47:43;;;;;;;4.65;2.60;;;29.00;41.50;;;;;;5016166;28;20057;-67
2023/06/29 06:50:09;;;;;;;6.22;2.60;;;28.60;42.10;;;;;;5016184;28;20030;-67
2023/06/29 06:52:35;;;;;;;5.68;2.75;;;28.20;42.90;;;;;;5015233;28;20406;-67
2023/06/29 06:55:01;;;;;;;5.43;2.85;;;28.00;43.40;;;;;;5016178;28;20026;-67
2023/06/29 06:57:28;;;;;;;6.10;2.88;;;27.70;43.20;;;;;;5016599;28;20454;-67
2023/06/29 06:59:54;;;;;;;4.57;2.88;;;27.40;44.40;;;;;;5016123;28;20029;-67
2023/06/29 07:02:21;;;;;;;3.92;2.50;;;27.30;44.90;;;;;;5016107;28;20080;-67
2023/06/29 07:04:47;;;;;;;3.67;2.22;;;27.30;45.30;;;;;;5015997;28;20026;-67
2023/06/29 07:07:13;;;;;;;2.78;2.30;;;27.20;45.80;;;;;;5015819;28;20451;-67
2023/06/29 07:09:39;;;;;;;4.35;2.58;;;27.30;46.00;;;;;;5016161;28;20026;-67
2023/06/29 07:12:05;;;;;;;3.42;2.70;;;27.50;46.20;;;;;;5015831;28;20080;-67
2023/06/29 07:14:33;;;;;;;5.80;2.75;;;27.70;45.80;;;;;;5015954;28;20095;-65
2023/06/29 07:16:59;;;;;;;3.67;2.67;;;27.90;45.70;;;;;;5016065;28;20022;-66
2023/06/29 07:19:26;;;;;;;3.85;2.70;;;28.10;45.30;;;;;;5016138;28;20037;-67
2023/06/29 07:21:54;;;;;;;8.15;2.90;;;28.20;45.10;;;;;;5015925;28;20030;-67
2023/06/29 07:24:23;;;;;;;5.05;3.25;;;28.40;44.90;;;;;;5015603;28;20034;-67
2023/06/29 07:26:49;;;;;;;3.30;2.80;;;28.50;44.50;;;;;;5015816;28;20025;-67
2023/06/29 07:29:15;;;;;;;4.40;2.50;;;28.30;44.30;;;;;;5019047;28;20026;-67
2023/06/29 07:31:41;;;;;;;6.55;2.70;;;28.00;44.90;;;;;;5055207;28;20050;-67
2023/06/29 07:34:10;;;;;;;2.25;2.05;;;28.00;45.40;;;;;;5055343;28;20021;-67
2023/06/29 07:36:40;;;;;;;4.57;2.60;;;28.00;45.60;;;;;;5055358;28;20028;-67
2023/06/29 07:39:07;;;;;;;3.92;2.72;;;28.00;46.20;;;;;;5054972;28;20044;-66
2023/06/29 07:41:33;;;;;;;4.75;3.28;;;28.10;45.90;;;;;;5037564;28;20025;-66
2023/06/29 07:43:59;;;;;;;4.50;2.50;;;28.20;45.70;;;;;;5055513;28;20031;-66
2023/06/29 07:46:25;;;;;;;3.40;2.50;;;28.30;45.80;;;;;;5054894;28;20033;-68
2023/06/29 07:48:52;;;;;;;2.58;2.20;;;28.40;45.80;;;;;;5055010;28;20028;-66
2023/06/29 07:51:18;;;;;;;6.20;2.70;;;28.70;45.80;;;;;;5054608;28;20029;-67
2023/06/29 07:53:44;;;;;;;3.05;2.45;;;28.90;45.80;;;;;;5055325;28;20454;-67
2023/06/29 07:56:10;;;;;;;5.47;2.80;;;29.10;45.10;;;;;;5055085;28;20048;-69
2023/06/29 07:58:37;;;;;;;5.45;3.28;;;28.90;44.30;;;;;;5037377;28;20017;-66
2023/06/29 08:01:03;;;;;;;5.10;2.63;;;29.00;44.40;;;;;;5055091;28;20028;-68
2023/06/29 08:03:29;;;;;;;5.60;2.63;;;28.90;44.60;;;;;;5054776;28;20116;-66
2023/06/29 08:05:55;;;;;;;4.32;3.13;;;29.00;44.70;;;;;;5054794;28;20059;-67
2023/06/29 08:08:21;;;;;;;5.57;3.28;;;29.20;44.40;;;;;;5054724;28;20078;-66
2023/06/29 08:10:48;;;;;;;5.35;2.95;;;29.00;44.00;;;;;;5054735;28;20071;-66
2023/06/29 08:13:15;;;;;;;3.67;2.58;;;28.90;44.50;;;;;;5054941;28;20346;-66
2023/06/29 08:15:42;;;;;;;3.97;2.50;;;29.00;45.20;;;;;;5055236;28;20115;-67
2023/06/29 08:18:08;;;;;;;3.60;2.38;;;28.90;44.90;;;;;;5054748;28;20043;-67
2023/06/29 08:20:34;;;;;;;2.83;2.50;;;29.00;44.80;;;;;;5054613;28;20036;-69
2023/06/29 08:23:00;;;;;;;3.38;2.47;;;29.10;44.90;;;;;;5054499;28;20021;-70
2023/06/29 08:25:27;;;;;;;4.00;2.35;;;29.10;44.50;;;;;;5054564;28;20096;-71
2023/06/29 08:27:53;;;;;;;3.83;2.40;;;29.10;44.20;;;;;;5055078;28;20043;-67
2023/06/29 08:30:19;;;;;;;4.40;2.53;;;29.20;44.40;;;;;;5054355;28;20463;-69
2023/06/29 08:32:48;;;;;;;3.13;2.30;;;29.30;44.40;;;;;;5053677;28;20025;-69
2023/06/29 08:35:16;;;;;;;3.67;2.38;;;29.50;44.00;;;;;;5053489;28;20434;-66
2023/06/29 08:37:42;;;;;;;4.85;2.28;;;29.70;43.80;;;;;;5037664;28;20079;-67
2023/06/29 08:40:08;;;;;;;2.58;2.38;;;29.90;43.60;;;;;;5053245;28;20021;-67
2023/06/29 08:42:37;;;;;;;9.15;5.35;;;30.20;43.30;;;;;;5036743;28;20121;-70
2023/06/29 08:45:06;;;;;;;8.43;4.57;;;30.40;42.80;;;;;;5054389;28;20044;-70
2023/06/29 08:47:34;;;;;;;6.57;3.95;;;30.60;42.20;;;;;;5054384;28;20457;-69
2023/06/29 08:50:03;;;;;;;4.35;3.40;;;30.60;41.80;;;;;;5054378;28;20029;-71
2023/06/29 08:52:34;;;;;;;4.53;2.95;;;30.60;41.50;;;;;;5037594;28;20017;-69
2023/06/29 08:55:01;;;;;;;4.25;2.65;;;30.50;41.50;;;;;;5020434;28;20469;-69
2023/06/29 08:57:32;;;;;;;3.22;2.60;;;30.40;41.70;;;;;;5054185;28;20518;-69
2023/06/29 08:59:59;;;;;;;5.25;2.65;;;30.40;41.60;;;;;;5054507;28;20029;-70
2023/06/29 09:02:26;;;;;;;2.42;2.17;;;30.40;41.80;;;;;;5054235;28;20025;-69
2023/06/29 09:04:52;;;;;;;3.15;2.20;;;30.40;41.80;;;;;;5057076;28;20466;-70
2023/06/29 09:07:18;;;;;;;4.28;2.53;;;30.40;41.80;;;;;;5040041;28;20025;-70
2023/06/29 09:09:44;;;;;;;3.90;2.30;;;30.50;41.60;;;;;;5056905;28;20029;-69
2023/06/29 09:12:10;;;;;;;4.70;2.05;;;30.60;41.30;;;;;;5057821;28;20445;-66
2023/06/29 09:14:44;;;;;;;3.47;2.10;;;30.60;41.40;;;;;;5058203;28;20033;-67
2023/06/29 09:17:14;;;;;;;2.95;2.15;;;30.60;41.30;;;;;;5040666;28;20021;-66
2023/06/29 09:19:49;;;;;;;3.92;2.58;;;30.60;41.10;;;;;;5058224;28;20434;-66
2023/06/29 09:22:15;;;;;;;3.97;2.30;;;30.50;41.30;;;;;;5058417;28;20096;-66
2023/06/29 09:24:42;;;;;;;3.35;2.20;;;30.50;41.30;;;;;;5058103;28;20098;-66
2023/06/29 09:27:10;;;;;;;4.13;2.45;;;30.50;41.40;;;;;;5058101;28;20071;-66
2023/06/29 09:29:37;;;;;;;4.38;2.30;;;30.40;41.20;;;;;;5057193;28;20048;-66
2023/06/29 09:32:03;;;;;;;4.15;2.50;;;30.40;41.60;;;;;;5057739;28;20024;-67
2023/06/29 09:34:29;;;;;;;2.60;2.38;;;30.40;41.60;;;;;;5057337;28;20447;-66
2023/06/29 09:36:56;;;;;;;3.25;2.53;;;30.50;41.70;;;;;;5040171;28;20036;-68
2023/06/29 09:39:22;;;;;;;4.15;2.20;;;30.50;41.70;;;;;;5057227;28;20049;-66
2023/06/29 09:41:54;;;;;;;3.42;2.40;;;30.50;41.80;;;;;;5039618;28;20051;-66
2023/06/29 09:44:24;;;;;;;2.60;2.33;;;30.60;41.70;;;;;;5057647;28;20060;-67
2023/06/29 09:47:04;;;;;;;5.00;2.95;;;30.70;41.40;;;;;;5039604;28;20123;-66
2023/06/29 09:49:31;;;;;;;4.50;2.58;;;30.70;40.40;;;;;;5039514;28;20024;-66
2023/06/29 09:52:03;;;;;;;3.95;2.97;;;30.40;41.10;;;;;;5057306;28;20154;-66
2023/06/29 09:54:36;;;;;;;4.00;2.58;;;30.30;41.20;;;;;;5039881;28;20028;-66
2023/06/29 09:57:05;;;;;;;2.67;2.03;;;30.20;41.40;;;;;;5057256;28;20108;-66
2023/06/29 09:59:31;;;;;;;5.20;2.63;;;30.20;41.60;;;;;;5056775;28;20077;-66
2023/06/29 10:02:00;;;;;;;3.38;2.35;;;30.20;41.40;;;;;;5057374;28;20100;-66
2023/06/29 10:04:26;;;;;;;3.17;2.40;;;30.20;41.40;;;;;;5056813;28;20025;-66
2023/06/29 10:07:07;;;;;;;3.38;2.10;;;30.20;41.10;;;;;;5056759;28;20063;-68
2023/06/29 10:09:38;;;;;;;3.00;2.03;;;30.20;40.60;;;;;;5056873;28;20029;-66
2023/06/29 10:12:07;;;;;;;4.03;2.05;;;30.20;40.40;;;;;;5056685;28;20021;-67
2023/06/29 10:14:34;;;;;;;2.67;2.00;;;30.20;40.50;;;;;;5056390;28;20032;-66
2023/06/29 10:17:03;;;;;;;2.60;1.92;;;30.20;40.40;;;;;;5056537;28;20040;-67
2023/06/29 10:19:30;;;;;;;2.88;2.00;;;30.30;40.00;;;;;;5039281;28;20457;-67
2023/06/29 10:22:03;;;;;;;2.58;1.90;;;30.20;39.10;;;;;;5056751;28;20446;-68
2023/06/29 10:24:39;;;;;;;2.97;1.90;;;30.10;38.30;;;;;;5056715;28;20472;-67
2023/06/29 10:27:07;;;;;;;2.55;1.90;;;30.00;38.20;;;;;;5039146;28;20025;-67
2023/06/29 10:29:43;;;;;;;3.40;2.05;;;29.90;38.60;;;;;;5031376;28;20094;-67
2023/06/29 10:32:09;;;;;;;2.05;1.58;;;30.00;38.40;;;;;;5016900;28;20037;-67
2023/06/29 10:34:58;;;;;;;2.00;1.80;;;30.10;39.00;;;;;;5017026;28;20357;-67
2023/06/29 10:37:33;;;;;;;3.55;2.10;;;30.30;38.90;;;;;;5015418;28;20048;-68
2023/06/29 10:40:00;;;;;;;2.25;1.92;;;30.30;38.00;;;;;;5016500;28;20105;-67
2023/06/29 10:42:28;;;;;;;2.70;2.08;;;30.30;38.20;;;;;;5016373;28;20014;-67
2023/06/29 10:44:58;;;;;;;2.42;1.90;;;30.30;38.50;;;;;;5016405;28;20022;-67
2023/06/29 10:47:28;;;;;;;2.97;2.30;;;30.40;38.60;;;;;;5016292;28;20033;-66
2023/06/29 10:50:09;;;;;;;2.40;2.00;;;30.40;38.60;;;;;;5016844;28;20029;-67
2023/06/29 10:52:37;;;;;;;4.05;2.45;;;30.50;38.70;;;;;;5015244;28;20038;-70
2023/06/29 10:55:39;;;;;;;4.30;1.90;;;30.60;38.90;;;;;;5015168;28;20399;-70
2023/06/29 10:58:25;;;;;;;3.35;2.00;;;30.60;39.00;;;;;;5005399;28;20026;-70
2023/06/29 11:00:53;;;;;;;3.47;2.08;;;30.70;39.10;;;;;;5016086;28;20080;-70
2023/06/29 11:03:20;;;;;;;4.28;1.90;;;30.80;39.40;;;;;;5015183;28;20129;-70
2023/06/29 11:05:54;;;;;;;2.58;2.22;;;30.90;39.50;;;;;;5016278;28;20062;-70
2023/06/29 11:08:24;;;;;;;2.30;2.10;;;30.90;38.60;;;;;;5016410;28;20034;-70
2023/06/29 11:10:51;;;;;;;2.95;2.10;;;30.80;38.40;;;;;;5016465;28;20041;-70
2023/06/29 11:13:20;;;;;;;3.47;2.20;;;30.70;38.20;;;;;;5016157;28;20025;-69
2023/06/29 11:15:55;;;;;;;4.20;2.30;;;30.70;38.20;;;;;;5015768;28;20037;-70
2023/06/29 11:18:22;;;;;;;2.15;1.95;;;30.60;38.10;;;;;;5015781;28;20021;-70
2023/06/29 11:20:48;;;;;;;4.03;2.25;;;30.60;38.40;;;;;;4998489;28;20105;-70
2023/06/29 11:23:16;;;;;;;3.05;2.47;;;30.60;38.20;;;;;;5014757;28;20034;-70
2023/06/29 11:25:42;;;;;;;2.97;2.30;;;30.50;38.10;;;;;;5015321;28;20076;-70
2023/06/29 11:28:08;;;;;;;3.20;2.30;;;30.40;38.20;;;;;;5015877;28;20034;-70
2023/06/29 11:30:39;;;;;;;3.83;2.20;;;30.30;38.40;;;;;;5040183;28;20445;-70
2023/06/29 11:33:06;;;;;;;2.88;2.28;;;30.40;38.30;;;;;;5055521;28;20035;-69
2023/06/29 11:35:33;;;;;;;2.40;2.20;;;30.20;38.10;;;;;;5055299;28;20021;-70
2023/06/29 11:38:03;;;;;;;2.47;2.05;;;30.20;38.20;;;;;;5055642;28;20103;-70
2023/06/29 11:40:29;;;;;;;2.70;1.98;;;30.20;38.70;;;;;;5055154;28;20017;-70
2023/06/29 11:42:55;;;;;;;2.33;1.90;;;30.20;38.60;;;;;;5037482;28;20431;-70
2023/06/29 11:45:22;;;;;;;4.20;2.50;;;30.20;38.70;;;;;;5037476;28;20488;-70
2023/06/29 11:47:54;;;;;;;4.15;2.20;;;30.30;38.60;;;;;;5055190;28;20442;-70
2023/06/29 11:50:20;;;;;;;2.38;1.92;;;30.20;37.60;;;;;;5055591;28;20502;-70
2023/06/29 11:52:49;;;;;;;2.22;2.03;;;30.20;37.80;;;;;;5054950;28;20029;-70
2023/06/29 11:55:18;;;;;;;2.60;2.03;;;30.20;37.70;;;;;;5054845;28;20029;-67
2023/06/29 11:57:51;;;;;;;3.17;2.17;;;30.20;37.50;;;;;;5054847;28;20399;-67
2023/06/29 12:00:17;;;;;;;4.18;2.20;;;30.20;37.00;;;;;;5055426;28;20025;-67
2023/06/29 12:02:44;;;;;;;2.95;2.20;;;30.10;37.00;;;;;;5055127;28;20033;-67
2023/06/29 12:05:10;;;;;;;2.20;2.00;;;30.00;37.10;;;;;;5055384;28;20104;-67
2023/06/29 12:07:44;;;;;;;2.75;1.85;;;30.00;37.20;;;;;;5055206;28;20434;-68
2023/06/29 12:10:12;;;;;;;1.83;1.73;;;30.00;37.20;;;;;;5037591;28;20052;-66
2023/06/29 12:12:41;;;;;;;2.20;2.00;;;30.10;37.50;;;;;;5037159;28;20082;-66
2023/06/29 12:15:17;;;;;;;3.92;2.20;;;30.10;37.90;;;;;;5055185;28;20032;-66
2023/06/29 12:17:44;;;;;;;2.95;2.40;;;30.20;36.80;;;;;;5020682;28;20032;-66
2023/06/29 12:20:14;;;;;;;2.95;2.35;;;30.10;37.10;;;;;;5055213;28;20359;-67
2023/06/29 12:22:44;;;;;;;2.95;2.40;;;30.00;37.40;;;;;;5054954;28;20021;-67
2023/06/29 12:25:12;;;;;;;2.95;2.38;;;30.00;37.50;;;;;;5054922;28;20024;-66
2023/06/29 12:27:43;;;;;;;3.83;2.35;;;30.00;37.70;;;;;;5037435;28;20021;-67
2023/06/29 12:30:14;;;;;;;5.05;2.13;;;29.90;37.70;;;;;;5025523;28;20480;-69
2023/06/29 12:32:48;;;;;;;2.80;2.22;;;30.00;37.90;;;;;;5014044;28;20033;-66
2023/06/29 12:35:14;;;;;;;;;;;29.90;38.10;;;;;;5014858;28;20030;-68
2023/06/29 12:37:41;;;;;;;2.97;2.58;;;29.80;38.50;;;;;;5015142;28;19985;-66
2023/06/29 12:40:07;;;;;;;2.78;2.38;;;29.90;38.70;;;;;;5017381;28;20028;-66
2023/06/29 12:42:34;;;;;;;4.13;2.70;;;30.00;38.40;;;;;;5018650;28;20041;-67
2023/06/29 12:45:00;;;;;;;2.28;2.08;;;30.00;38.40;;;;;;5019156;28;20431;-68
2023/06/29 12:47:33;;;;;;;4.55;2.67;;;30.00;38.20;;;;;;5017575;28;20037;-68
2023/06/29 12:49:59;;;;;;;3.33;2.42;;;29.90;38.00;;;;;;5017605;28;20469;-66